Terminal Aerodrome Forecast
Issued by NWS Charleston, WV

Current Version | Previous Version | Graphics & Text | Print | Product List | Glossary On
Versions: 1 2 3 4 5 6 7 8 9 10 11 12 13 14 15 16 17 18 19 20 21 22 23 24 25 26 27
000
FTUS41 KRLX 270300 AAB
TAFHTS
TAF AMD
KHTS 270344Z 2704/2724 33007G15KT 5SM -SHSN BR OVC030
      TEMPO 2704/2705 2SM -SHSN BKN015
     FM270800 34005KT P6SM SCT030=

USA.gov is the U.S. government's official web portal to all federal, state and local government web resources and services.